Terminal Aerodrome Forecast
Issued by NWS

Home | Current Version | Previous Version | Text Only | Print | Product List | Glossary On
Versions: 1 2 3 4 5 6 7 8 9 10 11 12 13 14 15 16 17 18 19 20 21 22
288
FTUS43 KIND 232320
TAFBMG
TAF
KBMG 232320Z 2400/2424 27003KT P6SM FEW035
     FM240100 00000KT 6SM BR BKN250
     FM240500 00000KT 4SM BR SKC
     FM240900 00000KT 2SM BR SKC
     FM241200 21004KT 4SM BR SKC
     FM241500 21004KT P6SM SCT250
      AMD LTD TO CLD VIS AND WIND TIL 241300=

USA.gov is the U.S. government's official web portal to all federal, state and local government web resources and services.